Time;durP1;ratioP1;P1;durP2;ratioP2;P2;SDS_P1;SDS_P2;PMS_P1;PMS_P2;Temp;Humidity;BMP_temperature;BMP_pressure;BME280_temperature;BME280_humidity;BME280_pressure;Samples;Min_cycle;Max_cycle;Signal;HPM_P1;HPM_P2
2021/01/25 00:01:41;;;;;;;10.27;5.88;;;;;;;;;;4933160;28;20030;-60
2021/01/25 00:04:13;;;;;;;13.65;5.57;;;;;;;;;;4966505;28;20129;-60
2021/01/25 00:06:39;;;;;;;17.02;5.90;;;;;;;;;;4963026;28;20416;-61
2021/01/25 00:09:08;;;;;;;12.95;5.68;;;;;;;;;;4952063;28;20042;-59
2021/01/25 00:11:35;;;;;;;14.40;6.20;;;;;;;;;;4971588;28;20036;-59
2021/01/25 00:14:03;;;;;;;10.77;5.72;;;;;;;;;;4966880;28;20022;-61
2021/01/25 00:16:29;;;;;;;14.40;6.38;;;;;;;;;;4969567;28;20343;-62
2021/01/25 00:18:54;;;;;;;13.80;5.70;;;;;;;;;;4969177;28;20050;-60
2021/01/25 00:21:20;;;;;;;13.82;5.15;;;;;;;;;;4943453;28;20046;-61
2021/01/25 00:23:50;;;;;;;8.57;5.28;;;;;;;;;;4963726;28;20647;-61
2021/01/25 00:26:16;;;;;;;10.70;5.68;;;;;;;;;;4969634;28;20717;-59
2021/01/25 00:28:44;;;;;;;11.65;5.85;;;;;;;;;;4951738;28;20169;-60
2021/01/25 00:31:16;;;;;;;12.35;6.07;;;;;;;;;;4948239;28;20491;-60
2021/01/25 00:33:46;;;;;;;15.73;5.68;;;;;;;;;;4946414;28;20130;-61
2021/01/25 00:36:12;;;;;;;11.23;6.22;;;;;;;;;;4968361;28;20497;-61
2021/01/25 00:38:37;;;;;;;11.95;5.97;;;;;;;;;;4944234;28;20112;-61
2021/01/25 00:41:03;;;;;;;15.32;7.72;;;;;;;;;;4934820;28;20038;-59
2021/01/25 00:43:28;;;;;;;10.90;5.50;;;;;;;;;;4951974;28;20041;-61
2021/01/25 00:45:56;;;;;;;15.65;6.35;;;;;;;;;;4947363;28;20093;-59
2021/01/25 00:48:21;;;;;;;14.70;5.88;;;;;;;;;;4949266;28;20113;-59
2021/01/25 00:50:49;;;;;;;16.15;7.25;;;;;;;;;;4950858;28;20045;-59
2021/01/25 00:53:17;;;;;;;13.57;6.72;;;;;;;;;;4953168;28;20023;-61
2021/01/25 00:55:45;;;;;;;16.85;7.32;;;;;;;;;;4948802;28;20253;-60
2021/01/25 00:58:11;;;;;;;15.80;7.63;;;;;;;;;;4947041;28;20470;-60
2021/01/25 01:00:38;;;;;;;15.00;7.20;;;;;;;;;;4966291;28;20097;-60
2021/01/25 01:03:04;;;;;;;14.20;7.18;;;;;;;;;;4944593;28;20026;-60
2021/01/25 01:05:30;;;;;;;14.60;7.03;;;;;;;;;;4969463;28;20065;-61
2021/01/25 01:07:56;;;;;;;19.90;7.38;;;;;;;;;;4969571;28;20347;-59
2021/01/25 01:10:23;;;;;;;15.95;6.00;;;;;;;;;;4934708;28;20054;-59
2021/01/25 01:12:54;;;;;;;17.35;7.13;;;;;;;;;;4964842;28;20028;-59
2021/01/25 01:15:24;;;;;;;10.55;5.53;;;;;;;;;;4961118;28;20053;-60
2021/01/25 01:18:11;;;;;;;12.90;6.63;;;;;;;;;;4942060;28;20554;-62
2021/01/25 01:20:37;;;;;;;14.82;6.75;;;;;;;;;;4968781;28;20116;-60
2021/01/25 01:23:05;;;;;;;15.43;6.57;;;;;;;;;;4969764;28;20026;-60
2021/01/25 01:25:30;;;;;;;16.40;6.43;;;;;;;;;;4969595;28;20049;-60
2021/01/25 01:27:56;;;;;;;18.88;6.90;;;;;;;;;;4962297;28;20022;-61
2021/01/25 01:30:21;;;;;;;17.92;6.45;;;;;;;;;;4931664;28;20129;-61
2021/01/25 01:32:47;;;;;;;13.30;5.75;;;;;;;;;;4931695;28;20034;-60
2021/01/25 01:35:18;;;;;;;16.95;7.25;;;;;;;;;;4932976;28;20030;-61
2021/01/25 01:37:48;;;;;;;9.57;5.18;;;;;;;;;;4951614;28;20185;-60
2021/01/25 01:40:14;;;;;;;7.90;4.90;;;;;;;;;;4968880;28;20026;-60
2021/01/25 01:42:40;;;;;;;15.15;6.13;;;;;;;;;;4966684;28;20041;-60
2021/01/25 01:45:06;;;;;;;14.25;6.53;;;;;;;;;;4968342;28;20463;-60
2021/01/25 01:47:33;;;;;;;13.73;7.22;;;;;;;;;;4965348;28;20513;-60
2021/01/25 01:50:03;;;;;;;14.20;6.95;;;;;;;;;;4967181;28;20048;-61
2021/01/25 01:52:28;;;;;;;12.85;7.25;;;;;;;;;;4950408;28;20038;-60
2021/01/25 01:54:58;;;;;;;17.60;7.95;;;;;;;;;;4954286;28;20074;-60
2021/01/25 01:57:23;;;;;;;14.52;6.75;;;;;;;;;;4970069;28;20030;-61
2021/01/25 01:59:49;;;;;;;19.58;7.25;;;;;;;;;;4968738;28;20053;-61
2021/01/25 02:02:17;;;;;;;16.40;6.70;;;;;;;;;;4971466;28;20405;-61
2021/01/25 02:04:43;;;;;;;12.32;5.78;;;;;;;;;;4970754;28;21259;-61
2021/01/25 02:07:11;;;;;;;13.80;6.82;;;;;;;;;;4953185;28;20697;-60
2021/01/25 02:09:41;;;;;;;16.63;7.65;;;;;;;;;;4972328;28;20065;-61
2021/01/25 02:12:11;;;;;;;11.23;5.93;;;;;;;;;;4951502;28;20089;-62
2021/01/25 02:14:37;;;;;;;12.63;7.05;;;;;;;;;;4951683;28;20305;-60
2021/01/25 02:17:24;;;;;;;16.20;6.25;;;;;;;;;;4969550;28;20030;-60
2021/01/25 02:20:01;;;;;;;9.38;5.35;;;;;;;;;;4970054;28;20025;-62
2021/01/25 02:22:38;;;;;;;21.38;6.78;;;;;;;;;;4971255;28;20113;-60
2021/01/25 02:25:23;;;;;;;15.43;7.22;;;;;;;;;;4972511;28;20044;-60
2021/01/25 02:27:51;;;;;;;13.00;6.28;;;;;;;;;;4952386;28;20038;-60
2021/01/25 02:30:17;;;;;;;20.38;6.15;;;;;;;;;;4972947;28;20650;-60
2021/01/25 02:35:57;;;;;;;21.25;7.70;;;;;;;;;;4971752;28;20030;-60
2021/01/25 02:38:23;;;;;;;22.23;8.18;;;;;;;;;;4966082;28;20272;-60
2021/01/25 02:40:50;;;;;;;18.13;7.72;;;;;;;;;;4966989;28;20061;-60
2021/01/25 02:43:16;;;;;;;14.50;7.25;;;;;;;;;;4969162;28;20504;-60
2021/01/25 02:45:48;;;;;;;15.75;7.70;;;;;;;;;;4949692;28;20034;-60
2021/01/25 02:48:18;;;;;;;15.80;7.47;;;;;;;;;;4971858;28;20482;-60
2021/01/25 02:50:50;;;;;;;32.03;8.85;;;;;;;;;;4969386;28;20063;-60
2021/01/25 02:53:21;;;;;;;15.38;8.02;;;;;;;;;;4972521;28;20035;-62
2021/01/25 02:55:50;;;;;;;17.33;6.95;;;;;;;;;;4949270;28;20508;-60
2021/01/25 02:58:19;;;;;;;17.27;7.28;;;;;;;;;;4966246;28;20030;-61
2021/01/25 03:00:44;;;;;;;15.40;8.23;;;;;;;;;;4970995;28;20102;-59
2021/01/25 03:03:10;;;;;;;16.77;7.18;;;;;;;;;;4953187;28;20489;-60
2021/01/25 03:05:38;;;;;;;19.88;7.57;;;;;;;;;;4968962;28;21974;-60
2021/01/25 03:08:04;;;;;;;16.33;7.28;;;;;;;;;;4969188;28;20034;-60
2021/01/25 03:10:32;;;;;;;15.15;7.25;;;;;;;;;;4964350;28;20881;-60
2021/01/25 03:13:02;;;;;;;16.30;7.85;;;;;;;;;;4968623;28;20296;-61
2021/01/25 03:15:33;;;;;;;13.18;7.07;;;;;;;;;;4964702;28;20034;-60
2021/01/25 03:18:06;;;;;;;14.25;7.00;;;;;;;;;;4950303;28;20121;-60
2021/01/25 03:20:31;;;;;;;20.55;7.45;;;;;;;;;;4970123;28;20505;-61
2021/01/25 03:22:59;;;;;;;15.80;8.20;;;;;;;;;;4952533;28;20485;-61
2021/01/25 03:25:24;;;;;;;17.42;8.55;;;;;;;;;;4947407;28;21662;-61
2021/01/25 03:27:55;;;;;;;17.33;7.45;;;;;;;;;;4967633;28;20034;-61
2021/01/25 03:30:21;;;;;;;12.07;6.80;;;;;;;;;;4965891;28;20034;-61
2021/01/25 03:32:50;;;;;;;14.93;8.07;;;;;;;;;;4968073;28;20610;-61
2021/01/25 03:35:15;;;;;;;17.48;9.00;;;;;;;;;;4952099;28;20034;-61
2021/01/25 03:37:44;;;;;;;20.45;8.93;;;;;;;;;;4969243;28;20038;-61
2021/01/25 03:40:11;;;;;;;15.15;8.70;;;;;;;;;;4951334;28;20045;-61
2021/01/25 03:42:37;;;;;;;12.27;6.78;;;;;;;;;;4969088;28;20029;-61
2021/01/25 03:45:05;;;;;;;15.27;7.28;;;;;;;;;;4949350;28;20117;-61
2021/01/25 03:47:35;;;;;;;15.90;8.13;;;;;;;;;;4948955;28;20030;-61
2021/01/25 03:50:02;;;;;;;19.67;8.90;;;;;;;;;;4969864;28;20102;-61
2021/01/25 03:52:28;;;;;;;19.10;7.57;;;;;;;;;;4967600;28;20033;-61
2021/01/25 03:54:53;;;;;;;20.45;9.40;;;;;;;;;;4968503;28;20050;-61
2021/01/25 03:57:25;;;;;;;17.25;8.05;;;;;;;;;;4969147;28;21708;-61
2021/01/25 03:59:53;;;;;;;16.45;7.85;;;;;;;;;;4969506;28;20148;-61
2021/01/25 04:02:19;;;;;;;13.70;7.45;;;;;;;;;;4948684;28;20069;-61
2021/01/25 04:04:44;;;;;;;12.27;6.88;;;;;;;;;;4952404;28;20144;-62
2021/01/25 04:07:15;;;;;;;13.95;7.75;;;;;;;;;;4974162;28;20558;-61
2021/01/25 04:09:46;;;;;;;11.00;7.00;;;;;;;;;;4972573;28;20034;-62
2021/01/25 04:12:12;;;;;;;21.65;8.65;;;;;;;;;;4970772;28;20734;-63
2021/01/25 04:14:40;;;;;;;18.67;9.60;;;;;;;;;;4952561;28;20026;-62
2021/01/25 04:17:06;;;;;;;20.52;8.80;;;;;;;;;;4969693;28;20057;-61
2021/01/25 04:19:34;;;;;;;18.27;7.47;;;;;;;;;;4968237;28;20215;-61
2021/01/25 04:22:02;;;;;;;18.40;8.18;;;;;;;;;;4948986;28;20038;-61
2021/01/25 04:24:28;;;;;;;22.23;9.45;;;;;;;;;;4963703;28;20244;-61
2021/01/25 04:26:56;;;;;;;14.90;8.57;;;;;;;;;;4952456;28;20035;-61
2021/01/25 04:29:24;;;;;;;19.85;8.75;;;;;;;;;;4952995;28;21622;-62
2021/01/25 04:31:52;;;;;;;20.13;9.48;;;;;;;;;;4953493;28;20038;-62
2021/01/25 04:34:17;;;;;;;23.25;10.25;;;;;;;;;;4968106;28;20504;-62
2021/01/25 04:36:42;;;;;;;18.17;8.63;;;;;;;;;;4971072;28;21571;-62
2021/01/25 04:39:32;;;;;;;21.98;10.25;;;;;;;;;;4965097;28;20744;-62
2021/01/25 04:42:03;;;;;;;21.48;10.13;;;;;;;;;;4970225;28;20038;-62
2021/01/25 04:44:28;;;;;;;20.80;10.35;;;;;;;;;;4968741;28;20096;-61
2021/01/25 04:46:57;;;;;;;23.48;10.93;;;;;;;;;;4971008;28;20572;-62
2021/01/25 04:49:27;;;;;;;21.67;9.80;;;;;;;;;;4970403;28;20426;-61
2021/01/25 04:51:54;;;;;;;19.30;9.25;;;;;;;;;;4968134;28;20033;-63
2021/01/25 04:54:24;;;;;;;21.75;10.50;;;;;;;;;;4969658;28;20389;-61
2021/01/25 04:56:52;;;;;;;21.17;11.45;;;;;;;;;;4966958;28;20023;-61
2021/01/25 04:59:19;;;;;;;28.25;11.65;;;;;;;;;;4970171;28;20069;-61
2021/01/25 05:01:47;;;;;;;18.48;8.88;;;;;;;;;;4969588;28;20073;-61
2021/01/25 05:04:12;;;;;;;23.52;11.02;;;;;;;;;;4965937;28;20030;-62
2021/01/25 05:06:41;;;;;;;26.52;11.35;;;;;;;;;;4946589;28;20084;-62
2021/01/25 05:09:11;;;;;;;19.98;10.43;;;;;;;;;;4968530;28;20476;-64
2021/01/25 05:11:36;;;;;;;28.92;10.93;;;;;;;;;;4967412;28;20042;-62
2021/01/25 05:14:07;;;;;;;19.40;9.07;;;;;;;;;;4969315;28;20092;-62
2021/01/25 05:16:32;;;;;;;20.77;10.80;;;;;;;;;;4968849;28;20141;-62
2021/01/25 05:19:03;;;;;;;18.88;9.65;;;;;;;;;;4969375;28;20109;-61
2021/01/25 05:21:45;;;;;;;20.40;9.20;;;;;;;;;;4964545;28;20073;-62
2021/01/25 05:24:12;;;;;;;26.88;10.73;;;;;;;;;;4963852;28;20482;-61
2021/01/25 05:26:49;;;;;;;23.17;9.55;;;;;;;;;;4949037;28;20065;-61
2021/01/25 05:29:21;;;;;;;20.17;10.30;;;;;;;;;;4968162;28;20218;-62
2021/01/25 05:31:51;;;;;;;22.95;12.23;;;;;;;;;;4952460;28;20435;-64
2021/01/25 05:34:19;;;;;;;26.30;11.30;;;;;;;;;;4973438;28;20850;-63
2021/01/25 05:36:45;;;;;;;27.05;10.80;;;;;;;;;;4950643;28;20030;-62
2021/01/25 05:39:13;;;;;;;25.60;11.15;;;;;;;;;;4972146;28;20038;-64
2021/01/25 05:41:38;;;;;;;28.10;10.35;;;;;;;;;;4947380;28;20145;-62
2021/01/25 05:44:13;;;;;;;28.95;11.85;;;;;;;;;;4971476;28;20436;-62
2021/01/25 05:46:45;;;;;;;19.70;9.40;;;;;;;;;;4971356;28;20416;-62
2021/01/25 05:49:11;;;;;;;25.73;11.63;;;;;;;;;;4959271;28;20030;-62
2021/01/25 05:51:36;;;;;;;20.95;9.73;;;;;;;;;;4971143;28;20116;-62
2021/01/25 05:54:09;;;;;;;22.45;10.50;;;;;;;;;;4969942;28;20037;-61
2021/01/25 05:56:37;;;;;;;22.88;9.13;;;;;;;;;;4952946;28;20053;-62
2021/01/25 05:59:03;;;;;;;23.20;10.43;;;;;;;;;;4968591;28;20026;-62
2021/01/25 06:01:32;;;;;;;26.83;11.40;;;;;;;;;;4965159;28;20041;-62
2021/01/25 06:03:59;;;;;;;29.00;11.85;;;;;;;;;;4970692;28;20045;-62
2021/01/25 06:06:34;;;;;;;30.83;11.30;;;;;;;;;;4968816;28;20125;-63
2021/01/25 06:09:07;;;;;;;21.77;10.15;;;;;;;;;;4971104;28;20034;-62
2021/01/25 06:11:32;;;;;;;18.55;10.30;;;;;;;;;;4972258;28;20493;-62
2021/01/25 06:14:16;;;;;;;24.58;9.68;;;;;;;;;;4971056;28;21785;-64
2021/01/25 06:16:43;;;;;;;20.40;8.75;;;;;;;;;;4973103;28;20113;-63
2021/01/25 06:19:09;;;;;;;25.58;10.63;;;;;;;;;;4946866;28;20022;-62
2021/01/25 06:21:42;;;;;;;23.75;10.00;;;;;;;;;;4955855;28;20536;-62
2021/01/25 06:24:11;;;;;;;19.10;9.27;;;;;;;;;;4949113;28;20587;-63
2021/01/25 06:26:41;;;;;;;22.58;8.93;;;;;;;;;;4971033;28;20042;-63
2021/01/25 06:29:09;;;;;;;18.30;9.35;;;;;;;;;;4971794;28;20031;-63
2021/01/25 06:31:38;;;;;;;16.08;8.65;;;;;;;;;;4964094;28;20053;-63
2021/01/25 06:34:09;;;;;;;16.88;8.75;;;;;;;;;;4973187;28;20091;-63
2021/01/25 06:36:35;;;;;;;23.63;10.50;;;;;;;;;;4970364;28;20042;-62
2021/01/25 06:39:04;;;;;;;24.25;11.05;;;;;;;;;;4969338;28;20030;-63
2021/01/25 06:41:36;;;;;;;21.88;8.93;;;;;;;;;;4965306;28;20140;-62
2021/01/25 06:44:02;;;;;;;23.30;11.00;;;;;;;;;;4951097;28;20030;-62
2021/01/25 06:46:31;;;;;;;30.10;10.55;;;;;;;;;;4952328;28;20770;-63
2021/01/25 06:49:02;;;;;;;26.13;13.07;;;;;;;;;;4970497;28;20149;-62
2021/01/25 06:51:30;;;;;;;29.08;11.05;;;;;;;;;;4971735;28;20137;-63
2021/01/25 06:54:00;;;;;;;22.27;11.00;;;;;;;;;;4931919;28;20054;-63
2021/01/25 06:56:25;;;;;;;28.65;13.10;;;;;;;;;;4966358;28;20061;-63
2021/01/25 06:58:56;;;;;;;30.58;12.48;;;;;;;;;;4948314;28;20030;-63
2021/01/25 07:01:22;;;;;;;21.60;9.93;;;;;;;;;;4949341;28;20215;-63
2021/01/25 07:04:00;;;;;;;27.13;12.13;;;;;;;;;;4951267;28;20070;-63
2021/01/25 07:06:35;;;;;;;34.08;13.93;;;;;;;;;;4953645;28;20058;-64
2021/01/25 07:09:02;;;;;;;24.73;10.93;;;;;;;;;;4967006;28;20109;-63
2021/01/25 07:11:28;;;;;;;28.35;12.23;;;;;;;;;;4968898;28;20121;-63
2021/01/25 07:13:54;;;;;;;25.65;10.93;;;;;;;;;;4970322;28;20019;-63
2021/01/25 07:16:22;;;;;;;32.13;12.52;;;;;;;;;;4970439;28;20018;-64
2021/01/25 07:18:49;;;;;;;21.98;10.80;;;;;;;;;;4966562;28;20693;-63
2021/01/25 07:21:16;;;;;;;26.38;11.68;;;;;;;;;;4967356;28;20037;-63
2021/01/25 07:23:45;;;;;;;23.98;10.85;;;;;;;;;;4970843;28;20113;-63
2021/01/25 07:26:13;;;;;;;25.42;9.75;;;;;;;;;;4950081;28;20021;-65
2021/01/25 07:28:39;;;;;;;27.15;11.20;;;;;;;;;;4944892;28;20116;-63
2021/01/25 07:31:09;;;;;;;26.38;11.35;;;;;;;;;;4965246;28;20022;-63
2021/01/25 07:33:34;;;;;;;22.23;9.13;;;;;;;;;;4949002;28;20559;-63
2021/01/25 07:36:03;;;;;;;23.10;10.48;;;;;;;;;;4952098;28;20101;-63
2021/01/25 07:38:31;;;;;;;32.42;10.68;;;;;;;;;;4947556;28;20358;-63
2021/01/25 07:40:57;;;;;;;28.45;11.70;;;;;;;;;;4948149;28;20034;-63
2021/01/25 07:43:37;;;;;;;26.20;10.77;;;;;;;;;;4947611;28;20322;-64
2021/01/25 07:46:05;;;;;;;25.00;12.38;;;;;;;;;;4967477;28;20229;-64
2021/01/25 07:48:33;;;;;;;23.98;10.35;;;;;;;;;;4950394;28;20432;-64
2021/01/25 07:50:59;;;;;;;20.02;10.80;;;;;;;;;;4963497;28;20026;-64
2021/01/25 07:53:33;;;;;;;26.80;10.48;;;;;;;;;;4951207;28;20030;-63
2021/01/25 07:56:04;;;;;;;27.45;12.98;;;;;;;;;;4971046;28;20034;-64
2021/01/25 07:58:36;;;;;;;23.80;12.25;;;;;;;;;;4969769;28;20049;-64
2021/01/25 08:01:08;;;;;;;26.33;11.45;;;;;;;;;;4949727;28;20038;-63
2021/01/25 08:03:36;;;;;;;28.20;12.82;;;;;;;;;;4968297;28;20553;-63
2021/01/25 08:06:22;;;;;;;26.23;11.77;;;;;;;;;;4947611;28;20065;-64
2021/01/25 08:09:22;;;;;;;32.67;12.38;;;;;;;;;;4969593;28;20109;-64
2021/01/25 08:11:52;;;;;;;30.25;12.15;;;;;;;;;;4967488;28;20042;-63
2021/01/25 08:14:22;;;;;;;33.05;12.27;;;;;;;;;;4968489;28;20380;-64
2021/01/25 08:16:51;;;;;;;28.95;12.13;;;;;;;;;;4969383;28;20486;-62
2021/01/25 08:19:57;;;;;;;32.80;12.75;;;;;;;;;;4968740;28;20556;-63
2021/01/25 08:22:27;;;;;;;30.67;14.25;;;;;;;;;;4868431;29;20188;-64
2021/01/25 08:31:34;;;;;;;27.13;12.32;;;;;;;;;;4969889;28;20027;-64
2021/01/25 08:34:15;;;;;;;33.17;12.40;;;;;;;;;;4962529;28;20057;-63
2021/01/25 08:37:10;;;;;;;31.45;13.48;;;;;;;;;;4968763;28;20626;-64
2021/01/25 08:39:44;;;;;;;29.52;12.45;;;;;;;;;;4966117;28;20038;-65
2021/01/25 08:42:15;;;;;;;28.95;12.55;;;;;;;;;;4966826;28;20885;-65
2021/01/25 08:44:45;;;;;;;29.58;14.35;;;;;;;;;;4967518;28;20037;-63
2021/01/25 08:47:16;;;;;;;30.65;13.25;;;;;;;;;;4969396;28;20348;-65
2021/01/25 08:49:45;;;;;;;27.85;11.77;;;;;;;;;;4966617;28;20034;-63
2021/01/25 08:52:31;;;;;;;30.63;13.32;;;;;;;;;;4962185;28;20026;-64
2021/01/25 08:58:25;;;;;;;28.52;11.10;;;;;;;;;;4968678;28;20270;-64
2021/01/25 09:00:51;;;;;;;24.58;11.00;;;;;;;;;;4948208;28;20034;-64
2021/01/25 09:03:25;;;;;;;30.15;12.52;;;;;;;;;;4970815;28;20735;-63
2021/01/25 09:05:54;;;;;;;30.58;12.18;;;;;;;;;;4969787;28;20202;-64
2021/01/25 09:08:23;;;;;;;25.33;12.25;;;;;;;;;;4969419;28;20136;-63
2021/01/25 09:10:51;;;;;;;26.13;12.00;;;;;;;;;;4971547;28;20277;-64
2021/01/25 09:13:16;;;;;;;29.23;13.60;;;;;;;;;;4971759;28;20696;-64
2021/01/25 09:15:42;;;;;;;23.92;12.00;;;;;;;;;;4949515;28;20045;-63
2021/01/25 09:18:11;;;;;;;25.17;11.48;;;;;;;;;;4951209;28;20042;-64
2021/01/25 09:20:39;;;;;;;26.85;11.15;;;;;;;;;;4973790;28;20455;-63
2021/01/25 09:23:07;;;;;;;26.92;12.15;;;;;;;;;;4967388;28;21986;-63
2021/01/25 09:25:35;;;;;;;25.95;11.95;;;;;;;;;;4951772;28;20030;-62
2021/01/25 09:28:00;;;;;;;25.45;12.20;;;;;;;;;;4972194;28;20030;-62
2021/01/25 09:30:30;;;;;;;21.33;10.75;;;;;;;;;;4952350;28;20041;-64
2021/01/25 09:32:55;;;;;;;24.67;11.80;;;;;;;;;;4969696;28;20027;-64
2021/01/25 09:35:41;;;;;;;24.60;11.05;;;;;;;;;;4970055;28;20347;-63
2021/01/25 09:38:09;;;;;;;21.52;10.00;;;;;;;;;;4970453;28;21631;-63
2021/01/25 09:40:40;;;;;;;21.92;10.52;;;;;;;;;;4955161;28;20077;-63
2021/01/25 09:43:08;;;;;;;24.58;10.13;;;;;;;;;;4970171;28;22169;-62
2021/01/25 09:45:33;;;;;;;26.00;11.38;;;;;;;;;;4970537;28;20082;-64
2021/01/25 09:51:35;;;;;;;23.27;11.10;;;;;;;;;;4971662;28;21608;-63
2021/01/25 09:54:00;;;;;;;25.58;11.40;;;;;;;;;;4972184;28;20026;-63
2021/01/25 09:56:26;;;;;;;24.30;12.57;;;;;;;;;;4969825;28;20157;-61
2021/01/25 09:58:54;;;;;;;20.40;10.40;;;;;;;;;;4972181;28;21750;-65
2021/01/25 10:01:25;;;;;;;22.17;9.77;;;;;;;;;;4950750;28;20034;-64
2021/01/25 10:04:22;;;;;;;17.15;8.93;;;;;;;;;;4951516;28;20672;-63
2021/01/25 10:06:48;;;;;;;20.88;8.98;;;;;;;;;;4970627;28;20046;-63
2021/01/25 10:09:16;;;;;;;20.52;9.85;;;;;;;;;;4948246;28;20728;-63
2021/01/25 10:11:41;;;;;;;19.77;9.45;;;;;;;;;;4951144;28;20034;-61
2021/01/25 10:14:06;;;;;;;22.88;9.35;;;;;;;;;;4966098;28;20552;-62
2021/01/25 10:16:35;;;;;;;19.33;9.38;;;;;;;;;;4970907;28;20030;-60
2021/01/25 10:22:36;;;;;;;25.35;9.65;;;;;;;;;;4967049;28;20064;-62
2021/01/25 10:25:07;;;;;;;24.65;10.23;;;;;;;;;;4951124;28;20026;-62
2021/01/25 10:27:33;;;;;;;18.83;9.77;;;;;;;;;;4950697;28;20034;-62
2021/01/25 10:29:58;;;;;;;26.45;11.93;;;;;;;;;;4953908;28;20030;-62
2021/01/25 10:32:28;;;;;;;17.95;9.90;;;;;;;;;;4957897;28;20026;-62
2021/01/25 10:38:05;;;;;;;29.50;11.02;;;;;;;;;;4971108;28;20036;-61
2021/01/25 10:43:46;;;;;;;26.30;11.70;;;;;;;;;;4970492;28;20393;-61
2021/01/25 10:46:12;;;;;;;24.70;11.35;;;;;;;;;;4967088;28;20042;-61
2021/01/25 10:48:37;;;;;;;24.33;11.85;;;;;;;;;;4971770;28;20026;-62
2021/01/25 10:57:44;;;;;;;25.05;11.85;;;;;;;;;;4969643;28;20573;-64
2021/01/25 11:00:17;;;;;;;26.80;11.95;;;;;;;;;;4947488;28;20076;-61
2021/01/25 11:02:45;;;;;;;19.15;10.63;;;;;;;;;;4967940;28;20325;-61
2021/01/25 11:05:14;;;;;;;21.70;10.73;;;;;;;;;;4949264;28;20050;-61
2021/01/25 11:07:41;;;;;;;26.25;11.73;;;;;;;;;;4965575;28;20037;-62
2021/01/25 11:10:11;;;;;;;24.38;11.27;;;;;;;;;;4950513;28;20042;-63
2021/01/25 11:12:39;;;;;;;21.00;10.57;;;;;;;;;;4969656;28;20462;-61
2021/01/25 11:15:07;;;;;;;23.60;11.20;;;;;;;;;;4949196;28;20042;-61
2021/01/25 11:21:11;;;;;;;17.38;9.02;;;;;;;;;;4969738;28;20038;-61
2021/01/25 11:23:39;;;;;;;18.45;10.05;;;;;;;;;;4966418;28;20034;-60
2021/01/25 11:26:07;;;;;;;18.42;9.07;;;;;;;;;;4951843;28;20110;-63
2021/01/25 11:28:41;;;;;;;18.80;9.13;;;;;;;;;;4968608;28;20038;-62
2021/01/25 11:31:07;;;;;;;20.27;9.15;;;;;;;;;;4952013;28;20405;-61
2021/01/25 11:33:35;;;;;;;20.17;8.95;;;;;;;;;;4968130;28;20240;-61
2021/01/25 11:36:03;;;;;;;18.65;8.95;;;;;;;;;;4966342;28;20038;-62
2021/01/25 11:38:29;;;;;;;16.15;8.40;;;;;;;;;;4971559;28;20038;-61
2021/01/25 11:40:57;;;;;;;17.52;8.80;;;;;;;;;;4969226;28;20022;-60
2021/01/25 11:43:23;;;;;;;25.17;7.70;;;;;;;;;;4970323;28;20053;-61
2021/01/25 11:45:56;;;;;;;18.13;7.20;;;;;;;;;;4968368;28;21615;-61
2021/01/25 11:49:01;;;;;;;14.65;7.70;;;;;;;;;;5087128;27;20729;-60
2021/01/25 11:51:26;;;;;;;13.88;7.25;;;;;;;;;;5049662;28;20093;-61
2021/01/25 11:53:52;;;;;;;13.55;7.75;;;;;;;;;;5062747;28;20071;-60
2021/01/25 11:56:24;;;;;;;15.75;7.78;;;;;;;;;;5054886;28;20038;-60
2021/01/25 11:58:50;;;;;;;17.60;7.68;;;;;;;;;;5073533;28;20109;-61
2021/01/25 12:01:17;;;;;;;14.75;6.43;;;;;;;;;;5088437;27;20099;-61
2021/01/25 12:03:50;;;;;;;12.70;6.95;;;;;;;;;;5061658;28;20039;-61
2021/01/25 12:06:18;;;;;;;10.43;6.10;;;;;;;;;;5073246;28;20028;-61
2021/01/25 12:08:46;;;;;;;11.95;6.18;;;;;;;;;;5074073;28;20598;-60
2021/01/25 12:11:18;;;;;;;13.70;6.45;;;;;;;;;;5067830;28;20020;-61
2021/01/25 12:13:44;;;;;;;10.27;5.72;;;;;;;;;;5089186;27;20032;-60
2021/01/25 12:16:12;;;;;;;12.38;5.97;;;;;;;;;;5072176;28;20775;-60
2021/01/25 12:18:50;;;;;;;10.75;5.43;;;;;;;;;;5060518;28;20036;-61
2021/01/25 12:21:33;;;;;;;11.48;4.90;;;;;;;;;;5024995;28;20033;-60
2021/01/25 12:24:02;;;;;;;10.35;5.07;;;;;;;;;;5027060;28;20033;-61
2021/01/25 12:26:31;;;;;;;8.80;4.40;;;;;;;;;;5010769;28;22398;-61
2021/01/25 12:28:57;;;;;;;10.45;4.40;;;;;;;;;;5025359;28;20040;-61
2021/01/25 12:31:37;;;;;;;8.27;4.28;;;;;;;;;;5025364;28;20545;-62
2021/01/25 12:34:03;;;;;;;5.90;3.72;;;;;;;;;;5023184;28;20040;-63
2021/01/25 12:36:29;;;;;;;5.40;3.22;;;;;;;;;;5024372;28;20132;-63
2021/01/25 12:38:57;;;;;;;10.05;3.65;;;;;;;;;;5024213;28;20033;-63
2021/01/25 12:41:23;;;;;;;9.52;3.88;;;;;;;;;;5023747;28;20050;-61
2021/01/25 12:43:49;;;;;;;7.95;3.60;;;;;;;;;;5024179;28;20035;-62
2021/01/25 12:46:14;;;;;;;6.68;3.22;;;;;;;;;;5022975;28;20732;-62
2021/01/25 12:48:41;;;;;;;9.00;3.40;;;;;;;;;;5011252;28;20508;-62
2021/01/25 12:51:07;;;;;;;8.00;4.25;;;;;;;;;;5022894;28;20037;-64
2021/01/25 12:53:33;;;;;;;6.38;3.53;;;;;;;;;;5043039;28;20238;-63
2021/01/25 12:55:58;;;;;;;9.68;4.53;;;;;;;;;;5046771;28;20029;-63
2021/01/25 12:58:24;;;;;;;9.80;4.88;;;;;;;;;;5043572;28;20042;-63
2021/01/25 13:00:51;;;;;;;8.15;4.50;;;;;;;;;;5017880;28;20056;-62
2021/01/25 13:03:19;;;;;;;12.50;4.25;;;;;;;;;;5016343;28;20575;-63
2021/01/25 13:05:46;;;;;;;6.57;3.53;;;;;;;;;;5048880;28;20138;-63
2021/01/25 13:08:13;;;;;;;6.85;3.80;;;;;;;;;;5048291;28;20040;-63
2021/01/25 13:10:48;;;;;;;5.07;2.72;;;;;;;;;;5033237;28;20028;-64
2021/01/25 13:16:49;;;;;;;9.32;2.92;;;;;;;;;;5033466;28;20032;-63
2021/01/25 13:19:36;;;;;;;11.82;3.08;;;;;;;;;;5016739;28;20030;-64
2021/01/25 13:22:01;;;;;;;5.22;2.83;;;;;;;;;;5031483;28;20128;-63
2021/01/25 13:24:52;;;;;;;5.43;2.53;;;;;;;;;;5034461;28;20020;-63
2021/01/25 13:30:24;;;;;;;6.13;3.22;;;;;;;;;;5033570;28;20441;-64
2021/01/25 13:32:51;;;;;;;5.30;2.40;;;;;;;;;;5001769;28;20044;-64
2021/01/25 13:35:21;;;;;;;4.82;2.65;;;;;;;;;;5035518;28;20068;-64
2021/01/25 13:37:49;;;;;;;5.78;2.53;;;;;;;;;;5032119;28;20491;-63
2021/01/25 13:40:17;;;;;;;7.43;2.83;;;;;;;;;;5034372;28;20198;-63
2021/01/25 13:42:43;;;;;;;7.28;2.90;;;;;;;;;;5029852;28;20120;-64
2021/01/25 13:45:20;;;;;;;4.57;2.17;;;;;;;;;;5015715;28;20115;-64
2021/01/25 13:47:46;;;;;;;8.30;2.08;;;;;;;;;;5032043;28;20052;-64
2021/01/25 13:50:16;;;;;;;3.53;1.90;;;;;;;;;;5017285;28;20183;-64
2021/01/25 13:52:42;;;;;;;3.05;1.60;;;;;;;;;;5017208;28;20025;-64
2021/01/25 13:55:13;;;;;;;3.55;1.33;;;;;;;;;;5033170;28;20025;-64
2021/01/25 13:57:41;;;;;;;4.50;1.55;;;;;;;;;;5032048;28;20067;-64
2021/01/25 14:00:14;;;;;;;5.00;1.42;;;;;;;;;;5016392;28;20477;-64
2021/01/25 14:02:40;;;;;;;4.13;1.70;;;;;;;;;;5015503;28;20036;-66
2021/01/25 14:11:53;;;;;;;5.25;1.13;;;;;;;;;;5029465;28;20444;-66
2021/01/25 14:14:20;;;;;;;3.33;1.23;;;;;;;;;;5031658;28;20020;-66
2021/01/25 14:16:48;;;;;;;1.73;1.05;;;;;;;;;;5027588;28;20036;-64
2021/01/25 14:19:17;;;;;;;11.13;2.20;;;;;;;;;;5015976;28;20056;-65
2021/01/25 14:21:45;;;;;;;3.47;2.03;;;;;;;;;;4997768;28;20037;-65
2021/01/25 14:24:12;;;;;;;2.47;1.45;;;;;;;;;;5044160;28;20118;-69
2021/01/25 14:26:40;;;;;;;2.58;1.35;;;;;;;;;;4998082;28;20236;-68
2021/01/25 14:29:10;;;;;;;2.40;0.98;;;;;;;;;;5000601;28;20440;-66
2021/01/25 14:31:45;;;;;;;3.80;1.73;;;;;;;;;;5023521;28;20040;-65
2021/01/25 14:34:13;;;;;;;1.98;1.10;;;;;;;;;;5033489;28;20035;-65
2021/01/25 14:36:42;;;;;;;4.22;1.00;;;;;;;;;;5017584;28;20024;-66
2021/01/25 14:42:14;;;;;;;1.10;0.63;;;;;;;;;;5032451;28;20533;-67
2021/01/25 14:44:42;;;;;;;1.95;1.00;;;;;;;;;;5020514;28;20048;-67
2021/01/25 14:47:08;;;;;;;4.65;1.30;;;;;;;;;;5014632;28;20068;-67
2021/01/25 14:50:17;;;;;;;3.35;1.33;;;;;;;;;;5011202;28;20500;-67
2021/01/25 14:52:45;;;;;;;5.53;1.10;;;;;;;;;;5033013;28;20079;-69
2021/01/25 14:55:14;;;;;;;4.45;1.20;;;;;;;;;;5018656;28;20099;-67
2021/01/25 14:57:40;;;;;;;2.17;1.38;;;;;;;;;;5013094;28;20028;-67
2021/01/25 15:03:45;;;;;;;2.58;1.10;;;;;;;;;;5031717;28;20044;-67
2021/01/25 15:06:19;;;;;;;4.85;1.63;;;;;;;;;;5012844;28;20033;-69
2021/01/25 15:08:44;;;;;;;5.60;1.85;;;;;;;;;;5011832;28;20036;-67
2021/01/25 15:11:10;;;;;;;3.15;1.50;;;;;;;;;;5045770;28;21646;-67
2021/01/25 15:13:36;;;;;;;4.55;2.10;;;;;;;;;;5015483;28;20065;-68
2021/01/25 15:16:14;;;;;;;2.63;1.60;;;;;;;;;;5030209;28;20778;-67
2021/01/25 15:18:44;;;;;;;5.30;2.17;;;;;;;;;;5046138;28;20455;-68
2021/01/25 15:21:12;;;;;;;5.10;2.47;;;;;;;;;;5031065;28;20033;-67
2021/01/25 15:23:38;;;;;;;6.70;2.50;;;;;;;;;;5032027;28;20024;-67
2021/01/25 15:26:04;;;;;;;12.00;2.70;;;;;;;;;;5007299;28;20497;-67
2021/01/25 15:28:29;;;;;;;5.47;2.90;;;;;;;;;;5041633;28;20028;-68
2021/01/25 15:30:59;;;;;;;5.85;3.35;;;;;;;;;;5030831;28;20040;-67
2021/01/25 15:33:25;;;;;;;8.00;3.58;;;;;;;;;;5046196;28;20592;-67
2021/01/25 15:35:52;;;;;;;7.28;3.33;;;;;;;;;;5030122;28;20048;-67
2021/01/25 15:38:19;;;;;;;9.98;3.65;;;;;;;;;;5031740;28;20035;-68